sensor_id;sensor_type;location;lat;lon;timestamp;temperature;humidity
64817;DHT22;69411;45.656;11.740;2023-05-17T00:00:09;14.70;75.90
64817;DHT22;69411;45.656;11.740;2023-05-17T00:02:35;14.70;75.90
64817;DHT22;69411;45.656;11.740;2023-05-17T00:05:02;14.70;76.00
64817;DHT22;69411;45.656;11.740;2023-05-17T00:07:28;14.70;75.90
64817;DHT22;69411;45.656;11.740;2023-05-17T00:09:53;14.70;76.10
64817;DHT22;69411;45.656;11.740;2023-05-17T00:12:19;14.60;76.20
64817;DHT22;69411;45.656;11.740;2023-05-17T00:14:45;14.60;76.30
64817;DHT22;69411;45.656;11.740;2023-05-17T00:17:11;14.60;76.30
64817;DHT22;69411;45.656;11.740;2023-05-17T00:19:37;14.60;76.40
64817;DHT22;69411;45.656;11.740;2023-05-17T00:22:03;14.60;76.50
64817;DHT22;69411;45.656;11.740;2023-05-17T00:24:29;14.60;76.60
64817;DHT22;69411;45.656;11.740;2023-05-17T00:26:55;14.60;76.60
64817;DHT22;69411;45.656;11.740;2023-05-17T00:29:21;14.60;76.60
64817;DHT22;69411;45.656;11.740;2023-05-17T00:31:47;14.60;76.60
64817;DHT22;69411;45.656;11.740;2023-05-17T00:34:13;14.50;76.80
64817;DHT22;69411;45.656;11.740;2023-05-17T00:36:39;14.50;76.80
64817;DHT22;69411;45.656;11.740;2023-05-17T00:39:05;14.50;77.00
64817;DHT22;69411;45.656;11.740;2023-05-17T00:41:31;14.50;77.00
64817;DHT22;69411;45.656;11.740;2023-05-17T00:43:57;14.50;77.10
64817;DHT22;69411;45.656;11.740;2023-05-17T00:46:23;14.50;77.30
64817;DHT22;69411;45.656;11.740;2023-05-17T00:48:49;14.50;77.20
64817;DHT22;69411;45.656;11.740;2023-05-17T00:51:15;14.50;77.30
64817;DHT22;69411;45.656;11.740;2023-05-17T00:53:44;14.50;77.20
64817;DHT22;69411;45.656;11.740;2023-05-17T00:56:10;14.50;77.30
64817;DHT22;69411;45.656;11.740;2023-05-17T00:58:37;14.40;77.40
64817;DHT22;69411;45.656;11.740;2023-05-17T01:01:05;14.40;77.40
64817;DHT22;69411;45.656;11.740;2023-05-17T01:03:31;14.40;77.40
64817;DHT22;69411;45.656;11.740;2023-05-17T01:05:57;14.40;77.50
64817;DHT22;69411;45.656;11.740;2023-05-17T01:08:23;14.40;77.50
64817;DHT22;69411;45.656;11.740;2023-05-17T01:13:57;14.40;77.60
64817;DHT22;69411;45.656;11.740;2023-05-17T01:16:39;14.40;77.60
64817;DHT22;69411;45.656;11.740;2023-05-17T01:19:56;14.40;77.60
64817;DHT22;69411;45.656;11.740;2023-05-17T01:22:48;14.30;77.70
64817;DHT22;69411;45.656;11.740;2023-05-17T01:26:09;14.30;77.80
64817;DHT22;69411;45.656;11.740;2023-05-17T01:28:39;14.40;77.80
64817;DHT22;69411;45.656;11.740;2023-05-17T01:31:07;14.30;77.80
64817;DHT22;69411;45.656;11.740;2023-05-17T01:33:34;14.30;77.90
64817;DHT22;69411;45.656;11.740;2023-05-17T01:36:00;14.30;78.00
64817;DHT22;69411;45.656;11.740;2023-05-17T01:38:26;14.30;78.00
64817;DHT22;69411;45.656;11.740;2023-05-17T01:46:38;14.30;77.90
64817;DHT22;69411;45.656;11.740;2023-05-17T01:49:17;14.30;78.00
64817;DHT22;69411;45.656;11.740;2023-05-17T01:57:14;14.20;78.50
64817;DHT22;69411;45.656;11.740;2023-05-17T01:59:44;14.10;79.20
64817;DHT22;69411;45.656;11.740;2023-05-17T02:02:11;14.10;78.70
64817;DHT22;69411;45.656;11.740;2023-05-17T02:04:38;14.10;78.70
64817;DHT22;69411;45.656;11.740;2023-05-17T02:07:04;14.10;78.90
64817;DHT22;69411;45.656;11.740;2023-05-17T02:09:30;14.00;78.70
64817;DHT22;69411;45.656;11.740;2023-05-17T02:11:56;14.00;78.70
64817;DHT22;69411;45.656;11.740;2023-05-17T02:14:22;14.00;78.70
64817;DHT22;69411;45.656;11.740;2023-05-17T02:16:48;14.00;78.70
64817;DHT22;69411;45.656;11.740;2023-05-17T02:19:13;14.10;78.80
64817;DHT22;69411;45.656;11.740;2023-05-17T02:21:39;14.10;78.80
64817;DHT22;69411;45.656;11.740;2023-05-17T02:24:06;14.00;78.80
64817;DHT22;69411;45.656;11.740;2023-05-17T02:26:32;14.10;78.90
64817;DHT22;69411;45.656;11.740;2023-05-17T02:28:58;14.10;78.90
64817;DHT22;69411;45.656;11.740;2023-05-17T02:31:24;14.00;79.00
64817;DHT22;69411;45.656;11.740;2023-05-17T02:33:52;14.00;79.30
64817;DHT22;69411;45.656;11.740;2023-05-17T02:36:18;14.00;79.30
64817;DHT22;69411;45.656;11.740;2023-05-17T02:38:44;14.00;79.20
64817;DHT22;69411;45.656;11.740;2023-05-17T02:41:10;14.00;79.80
64817;DHT22;69411;45.656;11.740;2023-05-17T02:43:36;14.00;79.40
64817;DHT22;69411;45.656;11.740;2023-05-17T02:46:01;14.00;79.30
64817;DHT22;69411;45.656;11.740;2023-05-17T02:48:27;14.00;79.30
64817;DHT22;69411;45.656;11.740;2023-05-17T02:50:53;14.00;79.30
64817;DHT22;69411;45.656;11.740;2023-05-17T02:53:19;14.00;79.40
64817;DHT22;69411;45.656;11.740;2023-05-17T02:55:45;14.00;79.60
64817;DHT22;69411;45.656;11.740;2023-05-17T02:58:11;14.00;79.50
64817;DHT22;69411;45.656;11.740;2023-05-17T03:00:37;14.00;79.40
64817;DHT22;69411;45.656;11.740;2023-05-17T03:03:03;14.00;79.40
64817;DHT22;69411;45.656;11.740;2023-05-17T03:05:29;14.00;79.50
64817;DHT22;69411;45.656;11.740;2023-05-17T03:07:55;14.00;79.40
64817;DHT22;69411;45.656;11.740;2023-05-17T03:10:21;14.00;79.40
64817;DHT22;69411;45.656;11.740;2023-05-17T03:12:47;14.00;79.50
64817;DHT22;69411;45.656;11.740;2023-05-17T03:15:13;14.00;79.50
64817;DHT22;69411;45.656;11.740;2023-05-17T03:17:38;14.00;79.50
64817;DHT22;69411;45.656;11.740;2023-05-17T03:20:05;14.00;79.40
64817;DHT22;69411;45.656;11.740;2023-05-17T03:22:32;14.00;79.40
64817;DHT22;69411;45.656;11.740;2023-05-17T03:24:58;14.00;79.50
64817;DHT22;69411;45.656;11.740;2023-05-17T03:27:24;14.00;79.50
64817;DHT22;69411;45.656;11.740;2023-05-17T03:29:50;14.00;79.60
64817;DHT22;69411;45.656;11.740;2023-05-17T03:32:16;14.00;79.60
64817;DHT22;69411;45.656;11.740;2023-05-17T03:34:41;14.00;79.70
64817;DHT22;69411;45.656;11.740;2023-05-17T03:37:07;14.00;79.70
64817;DHT22;69411;45.656;11.740;2023-05-17T03:39:33;14.00;79.60
64817;DHT22;69411;45.656;11.740;2023-05-17T03:41:59;14.00;79.70
64817;DHT22;69411;45.656;11.740;2023-05-17T03:44:26;14.00;79.60
64817;DHT22;69411;45.656;11.740;2023-05-17T03:46:52;14.00;79.60
64817;DHT22;69411;45.656;11.740;2023-05-17T03:49:18;14.00;79.60
64817;DHT22;69411;45.656;11.740;2023-05-17T03:51:44;14.00;79.60
64817;DHT22;69411;45.656;11.740;2023-05-17T03:54:10;14.00;79.70
64817;DHT22;69411;45.656;11.740;2023-05-17T03:56:36;13.90;79.70
64817;DHT22;69411;45.656;11.740;2023-05-17T03:59:02;14.00;79.70
64817;DHT22;69411;45.656;11.740;2023-05-17T04:01:28;13.90;79.70
64817;DHT22;69411;45.656;11.740;2023-05-17T04:03:54;14.00;79.80
64817;DHT22;69411;45.656;11.740;2023-05-17T04:06:20;14.00;79.80
64817;DHT22;69411;45.656;11.740;2023-05-17T04:08:46;13.90;79.80
64817;DHT22;69411;45.656;11.740;2023-05-17T04:11:11;14.00;79.90
64817;DHT22;69411;45.656;11.740;2023-05-17T04:13:39;14.00;79.90
64817;DHT22;69411;45.656;11.740;2023-05-17T04:16:09;14.00;79.90
64817;DHT22;69411;45.656;11.740;2023-05-17T04:18:36;14.00;79.90
64817;DHT22;69411;45.656;11.740;2023-05-17T04:21:03;14.00;79.90
64817;DHT22;69411;45.656;11.740;2023-05-17T04:23:33;14.00;80.10
64817;DHT22;69411;45.656;11.740;2023-05-17T04:25:59;14.00;80.00
64817;DHT22;69411;45.656;11.740;2023-05-17T04:28:25;14.00;80.00
64817;DHT22;69411;45.656;11.740;2023-05-17T04:30:51;14.00;80.10
64817;DHT22;69411;45.656;11.740;2023-05-17T04:33:17;14.00;80.10
64817;DHT22;69411;45.656;11.740;2023-05-17T04:35:44;14.00;80.10
64817;DHT22;69411;45.656;11.740;2023-05-17T04:38:10;14.10;80.10
64817;DHT22;69411;45.656;11.740;2023-05-17T04:40:37;14.00;80.00
64817;DHT22;69411;45.656;11.740;2023-05-17T04:43:03;14.00;80.00
64817;DHT22;69411;45.656;11.740;2023-05-17T04:45:29;14.10;80.00
64817;DHT22;69411;45.656;11.740;2023-05-17T04:47:55;14.10;80.00
64817;DHT22;69411;45.656;11.740;2023-05-17T04:50:21;14.10;80.00
64817;DHT22;69411;45.656;11.740;2023-05-17T04:52:47;14.10;79.90
64817;DHT22;69411;45.656;11.740;2023-05-17T04:55:13;14.10;80.00
64817;DHT22;69411;45.656;11.740;2023-05-17T04:57:38;14.10;80.10
64817;DHT22;69411;45.656;11.740;2023-05-17T05:00:05;14.10;79.90
64817;DHT22;69411;45.656;11.740;2023-05-17T05:02:32;14.10;79.80
64817;DHT22;69411;45.656;11.740;2023-05-17T05:04:58;14.10;79.90
64817;DHT22;69411;45.656;11.740;2023-05-17T05:07:24;14.20;79.90
64817;DHT22;69411;45.656;11.740;2023-05-17T05:09:50;14.20;79.90
64817;DHT22;69411;45.656;11.740;2023-05-17T05:12:16;14.20;79.90
64817;DHT22;69411;45.656;11.740;2023-05-17T05:14:42;14.20;80.00
64817;DHT22;69411;45.656;11.740;2023-05-17T05:17:09;14.20;79.90
64817;DHT22;69411;45.656;11.740;2023-05-17T05:19:34;14.30;79.80
64817;DHT22;69411;45.656;11.740;2023-05-17T05:22:00;14.30;79.80
64817;DHT22;69411;45.656;11.740;2023-05-17T05:24:26;14.30;79.80
64817;DHT22;69411;45.656;11.740;2023-05-17T05:26:52;14.40;79.80
64817;DHT22;69411;45.656;11.740;2023-05-17T05:29:18;14.40;79.80
64817;DHT22;69411;45.656;11.740;2023-05-17T05:31:44;14.40;79.80
64817;DHT22;69411;45.656;11.740;2023-05-17T05:34:11;14.40;79.70
64817;DHT22;69411;45.656;11.740;2023-05-17T05:36:37;14.50;79.70
64817;DHT22;69411;45.656;11.740;2023-05-17T05:39:03;14.50;79.70
64817;DHT22;69411;45.656;11.740;2023-05-17T05:41:29;14.50;79.60
64817;DHT22;69411;45.656;11.740;2023-05-17T05:43:56;14.50;79.60
64817;DHT22;69411;45.656;11.740;2023-05-17T05:46:22;14.60;79.60
64817;DHT22;69411;45.656;11.740;2023-05-17T05:48:48;14.60;79.60
64817;DHT22;69411;45.656;11.740;2023-05-17T05:51:13;14.60;79.50
64817;DHT22;69411;45.656;11.740;2023-05-17T05:53:39;14.70;79.50
64817;DHT22;69411;45.656;11.740;2023-05-17T05:56:05;14.70;79.40
64817;DHT22;69411;45.656;11.740;2023-05-17T05:58:32;14.70;79.40
64817;DHT22;69411;45.656;11.740;2023-05-17T06:00:58;14.80;79.20
64817;DHT22;69411;45.656;11.740;2023-05-17T06:03:24;14.80;79.20
64817;DHT22;69411;45.656;11.740;2023-05-17T06:05:50;14.80;79.10
64817;DHT22;69411;45.656;11.740;2023-05-17T06:08:16;14.80;79.00
64817;DHT22;69411;45.656;11.740;2023-05-17T06:10:42;14.90;78.90
64817;DHT22;69411;45.656;11.740;2023-05-17T06:13:08;14.90;78.70
64817;DHT22;69411;45.656;11.740;2023-05-17T06:15:34;14.90;78.70
64817;DHT22;69411;45.656;11.740;2023-05-17T06:18:00;14.90;78.70
64817;DHT22;69411;45.656;11.740;2023-05-17T06:20:26;14.90;78.50
64817;DHT22;69411;45.656;11.740;2023-05-17T06:22:52;15.00;78.30
64817;DHT22;69411;45.656;11.740;2023-05-17T06:25:18;15.00;78.30
64817;DHT22;69411;45.656;11.740;2023-05-17T06:27:44;15.00;78.20
64817;DHT22;69411;45.656;11.740;2023-05-17T06:30:11;15.10;78.10
64817;DHT22;69411;45.656;11.740;2023-05-17T06:32:37;15.10;78.00
64817;DHT22;69411;45.656;11.740;2023-05-17T06:35:03;15.20;77.80
64817;DHT22;69411;45.656;11.740;2023-05-17T06:37:29;15.20;77.80
64817;DHT22;69411;45.656;11.740;2023-05-17T06:40:05;15.30;77.70
64817;DHT22;69411;45.656;11.740;2023-05-17T06:42:31;15.30;77.70
64817;DHT22;69411;45.656;11.740;2023-05-17T06:44:58;15.30;77.80
64817;DHT22;69411;45.656;11.740;2023-05-17T06:47:24;15.40;77.70
64817;DHT22;69411;45.656;11.740;2023-05-17T06:49:50;15.40;77.80
64817;DHT22;69411;45.656;11.740;2023-05-17T06:52:16;15.40;77.60
64817;DHT22;69411;45.656;11.740;2023-05-17T06:54:42;15.50;77.60
64817;DHT22;69411;45.656;11.740;2023-05-17T06:57:09;15.50;77.50
64817;DHT22;69411;45.656;11.740;2023-05-17T06:59:37;15.60;77.50
64817;DHT22;69411;45.656;11.740;2023-05-17T07:02:03;15.70;77.20
64817;DHT22;69411;45.656;11.740;2023-05-17T07:04:29;15.70;77.10
64817;DHT22;69411;45.656;11.740;2023-05-17T07:06:56;15.80;76.90
64817;DHT22;69411;45.656;11.740;2023-05-17T07:09:22;15.80;76.80
64817;DHT22;69411;45.656;11.740;2023-05-17T07:11:48;15.90;76.70
64817;DHT22;69411;45.656;11.740;2023-05-17T07:14:14;15.90;76.60
64817;DHT22;69411;45.656;11.740;2023-05-17T07:16:40;16.00;76.60
64817;DHT22;69411;45.656;11.740;2023-05-17T07:19:06;16.10;76.50
64817;DHT22;69411;45.656;11.740;2023-05-17T07:21:32;16.20;76.50
64817;DHT22;69411;45.656;11.740;2023-05-17T07:23:58;16.20;76.20
64817;DHT22;69411;45.656;11.740;2023-05-17T07:26:24;16.30;76.10
64817;DHT22;69411;45.656;11.740;2023-05-17T07:28:50;16.40;76.00
64817;DHT22;69411;45.656;11.740;2023-05-17T07:31:16;16.40;75.60
64817;DHT22;69411;45.656;11.740;2023-05-17T07:33:42;16.50;75.50
64817;DHT22;69411;45.656;11.740;2023-05-17T07:36:08;16.50;75.40
64817;DHT22;69411;45.656;11.740;2023-05-17T07:38:35;16.50;75.30
64817;DHT22;69411;45.656;11.740;2023-05-17T07:41:01;16.60;75.30
64817;DHT22;69411;45.656;11.740;2023-05-17T07:43:28;16.60;75.30
64817;DHT22;69411;45.656;11.740;2023-05-17T07:45:53;16.60;75.20
64817;DHT22;69411;45.656;11.740;2023-05-17T07:48:19;16.70;75.20
64817;DHT22;69411;45.656;11.740;2023-05-17T07:50:45;16.70;75.10
64817;DHT22;69411;45.656;11.740;2023-05-17T07:53:12;16.80;74.90
64817;DHT22;69411;45.656;11.740;2023-05-17T07:55:37;16.90;74.70
64817;DHT22;69411;45.656;11.740;2023-05-17T07:58:03;16.90;74.60
64817;DHT22;69411;45.656;11.740;2023-05-17T08:00:29;16.90;74.60
64817;DHT22;69411;45.656;11.740;2023-05-17T08:02:56;17.00;74.50
64817;DHT22;69411;45.656;11.740;2023-05-17T08:05:22;17.10;74.40
64817;DHT22;69411;45.656;11.740;2023-05-17T08:07:48;17.10;74.20
64817;DHT22;69411;45.656;11.740;2023-05-17T08:10:14;17.20;74.00
64817;DHT22;69411;45.656;11.740;2023-05-17T08:12:40;17.30;73.80
64817;DHT22;69411;45.656;11.740;2023-05-17T08:15:06;17.30;73.70
64817;DHT22;69411;45.656;11.740;2023-05-17T08:17:32;17.40;73.60
64817;DHT22;69411;45.656;11.740;2023-05-17T08:19:58;17.40;73.50
64817;DHT22;69411;45.656;11.740;2023-05-17T08:22:24;17.50;73.40
64817;DHT22;69411;45.656;11.740;2023-05-17T08:24:50;17.50;73.40
64817;DHT22;69411;45.656;11.740;2023-05-17T08:27:16;17.60;73.40
64817;DHT22;69411;45.656;11.740;2023-05-17T08:29:43;17.70;73.30
64817;DHT22;69411;45.656;11.740;2023-05-17T08:32:09;17.80;73.10
64817;DHT22;69411;45.656;11.740;2023-05-17T08:34:35;17.90;72.90
64817;DHT22;69411;45.656;11.740;2023-05-17T08:37:01;18.00;72.60
64817;DHT22;69411;45.656;11.740;2023-05-17T08:39:27;18.10;72.40
64817;DHT22;69411;45.656;11.740;2023-05-17T08:41:53;18.30;72.10
64817;DHT22;69411;45.656;11.740;2023-05-17T08:44:25;18.50;71.90
64817;DHT22;69411;45.656;11.740;2023-05-17T08:46:52;18.70;71.40
64817;DHT22;69411;45.656;11.740;2023-05-17T08:49:21;18.80;70.90
64817;DHT22;69411;45.656;11.740;2023-05-17T08:51:52;18.80;70.60
64817;DHT22;69411;45.656;11.740;2023-05-17T08:54:18;18.90;70.30
64817;DHT22;69411;45.656;11.740;2023-05-17T08:56:45;19.00;70.20
64817;DHT22;69411;45.656;11.740;2023-05-17T08:59:17;18.90;70.00
64817;DHT22;69411;45.656;11.740;2023-05-17T09:01:47;19.00;69.80
64817;DHT22;69411;45.656;11.740;2023-05-17T09:04:15;19.00;69.60
64817;DHT22;69411;45.656;11.740;2023-05-17T09:06:42;19.00;69.20
64817;DHT22;69411;45.656;11.740;2023-05-17T09:09:11;19.00;69.40
64817;DHT22;69411;45.656;11.740;2023-05-17T09:11:37;19.00;69.10
64817;DHT22;69411;45.656;11.740;2023-05-17T09:14:05;19.20;69.00
64817;DHT22;69411;45.656;11.740;2023-05-17T09:16:33;19.30;68.80
64817;DHT22;69411;45.656;11.740;2023-05-17T09:19:03;19.40;68.20
64817;DHT22;69411;45.656;11.740;2023-05-17T09:21:30;19.50;68.10
64817;DHT22;69411;45.656;11.740;2023-05-17T09:23:57;19.60;67.90
64817;DHT22;69411;45.656;11.740;2023-05-17T09:26:24;19.70;67.70
64817;DHT22;69411;45.656;11.740;2023-05-17T09:28:51;19.80;67.30
64817;DHT22;69411;45.656;11.740;2023-05-17T09:31:18;19.90;67.10
64817;DHT22;69411;45.656;11.740;2023-05-17T09:33:45;19.90;66.80
64817;DHT22;69411;45.656;11.740;2023-05-17T09:36:21;19.90;66.30
64817;DHT22;69411;45.656;11.740;2023-05-17T09:38:58;19.90;66.10
64817;DHT22;69411;45.656;11.740;2023-05-17T09:41:30;19.90;65.80
64817;DHT22;69411;45.656;11.740;2023-05-17T09:44:00;20.00;65.60
64817;DHT22;69411;45.656;11.740;2023-05-17T09:46:37;20.00;65.60
64817;DHT22;69411;45.656;11.740;2023-05-17T09:49:06;20.00;65.40
64817;DHT22;69411;45.656;11.740;2023-05-17T09:51:44;20.00;65.50
64817;DHT22;69411;45.656;11.740;2023-05-17T09:54:11;20.00;65.30
64817;DHT22;69411;45.656;11.740;2023-05-17T09:56:38;20.10;65.00
64817;DHT22;69411;45.656;11.740;2023-05-17T09:59:10;20.10;65.10
64817;DHT22;69411;45.656;11.740;2023-05-17T10:01:39;20.20;64.80
64817;DHT22;69411;45.656;11.740;2023-05-17T10:04:08;20.20;64.80
64817;DHT22;69411;45.656;11.740;2023-05-17T10:06:40;20.30;64.10
64817;DHT22;69411;45.656;11.740;2023-05-17T10:09:09;20.30;63.40
64817;DHT22;69411;45.656;11.740;2023-05-17T10:11:38;20.20;63.10
64817;DHT22;69411;45.656;11.740;2023-05-17T10:14:16;20.30;62.90
64817;DHT22;69411;45.656;11.740;2023-05-17T10:16:44;20.20;61.90
64817;DHT22;69411;45.656;11.740;2023-05-17T10:19:13;20.20;62.00
64817;DHT22;69411;45.656;11.740;2023-05-17T10:21:40;20.20;61.50
64817;DHT22;69411;45.656;11.740;2023-05-17T10:24:07;20.20;61.40
64817;DHT22;69411;45.656;11.740;2023-05-17T10:26:34;20.20;60.60
64817;DHT22;69411;45.656;11.740;2023-05-17T10:29:01;20.20;60.20
64817;DHT22;69411;45.656;11.740;2023-05-17T10:31:29;20.20;59.80
64817;DHT22;69411;45.656;11.740;2023-05-17T10:33:56;20.20;60.20
64817;DHT22;69411;45.656;11.740;2023-05-17T10:36:23;20.10;60.20
64817;DHT22;69411;45.656;11.740;2023-05-17T10:38:50;20.10;60.50
64817;DHT22;69411;45.656;11.740;2023-05-17T10:41:18;20.20;60.50
64817;DHT22;69411;45.656;11.740;2023-05-17T10:43:46;20.20;60.20
64817;DHT22;69411;45.656;11.740;2023-05-17T10:46:17;20.20;60.40
64817;DHT22;69411;45.656;11.740;2023-05-17T10:48:52;20.30;60.00
64817;DHT22;69411;45.656;11.740;2023-05-17T10:51:30;20.30;59.30
64817;DHT22;69411;45.656;11.740;2023-05-17T10:54:13;20.30;59.10
64817;DHT22;69411;45.656;11.740;2023-05-17T10:56:52;20.30;58.80
64817;DHT22;69411;45.656;11.740;2023-05-17T10:59:27;20.30;58.80
64817;DHT22;69411;45.656;11.740;2023-05-17T11:02:05;20.30;58.40
64817;DHT22;69411;45.656;11.740;2023-05-17T11:07:23;20.40;58.30
64817;DHT22;69411;45.656;11.740;2023-05-17T11:15:14;20.40;58.30
64817;DHT22;69411;45.656;11.740;2023-05-17T11:25:16;20.60;58.00
64817;DHT22;69411;45.656;11.740;2023-05-17T11:27:48;20.60;58.00
64817;DHT22;69411;45.656;11.740;2023-05-17T11:30:21;20.70;57.70
64817;DHT22;69411;45.656;11.740;2023-05-17T11:32:53;20.70;56.70
64817;DHT22;69411;45.656;11.740;2023-05-17T11:35:42;20.70;57.10
64817;DHT22;69411;45.656;11.740;2023-05-17T11:40:45;20.70;56.50
64817;DHT22;69411;45.656;11.740;2023-05-17T11:43:16;20.60;56.20
64817;DHT22;69411;45.656;11.740;2023-05-17T11:45:55;20.60;56.30
64817;DHT22;69411;45.656;11.740;2023-05-17T11:48:29;20.60;55.50
64817;DHT22;69411;45.656;11.740;2023-05-17T11:50:56;20.60;56.10
64817;DHT22;69411;45.656;11.740;2023-05-17T11:53:24;20.70;56.20
64817;DHT22;69411;45.656;11.740;2023-05-17T11:55:50;20.70;56.10
64817;DHT22;69411;45.656;11.740;2023-05-17T11:58:19;20.90;56.10
64817;DHT22;69411;45.656;11.740;2023-05-17T12:00:50;20.90;55.80
64817;DHT22;69411;45.656;11.740;2023-05-17T12:03:21;20.90;54.50
64817;DHT22;69411;45.656;11.740;2023-05-17T12:05:49;20.90;55.50
64817;DHT22;69411;45.656;11.740;2023-05-17T12:08:17;20.90;54.60
64817;DHT22;69411;45.656;11.740;2023-05-17T12:10:49;20.90;53.90
64817;DHT22;69411;45.656;11.740;2023-05-17T12:13:15;20.90;54.80
64817;DHT22;69411;45.656;11.740;2023-05-17T12:15:44;20.90;54.70
64817;DHT22;69411;45.656;11.740;2023-05-17T12:18:11;20.90;54.70
64817;DHT22;69411;45.656;11.740;2023-05-17T12:20:37;20.90;54.70
64817;DHT22;69411;45.656;11.740;2023-05-17T12:23:04;20.90;54.30
64817;DHT22;69411;45.656;11.740;2023-05-17T12:25:29;21.00;54.70
64817;DHT22;69411;45.656;11.740;2023-05-17T12:28:17;21.00;54.20
64817;DHT22;69411;45.656;11.740;2023-05-17T12:30:52;21.10;54.30
64817;DHT22;69411;45.656;11.740;2023-05-17T12:33:19;21.10;54.30
64817;DHT22;69411;45.656;11.740;2023-05-17T12:35:45;21.20;54.30
64817;DHT22;69411;45.656;11.740;2023-05-17T12:38:11;21.20;54.10
64817;DHT22;69411;45.656;11.740;2023-05-17T12:40:39;21.30;54.00
64817;DHT22;69411;45.656;11.740;2023-05-17T12:43:05;21.40;54.00
64817;DHT22;69411;45.656;11.740;2023-05-17T12:45:32;21.40;53.80
64817;DHT22;69411;45.656;11.740;2023-05-17T12:47:59;21.40;52.90
64817;DHT22;69411;45.656;11.740;2023-05-17T12:50:29;21.40;52.90
64817;DHT22;69411;45.656;11.740;2023-05-17T12:52:55;21.40;52.90
64817;DHT22;69411;45.656;11.740;2023-05-17T12:55:21;21.30;52.70
64817;DHT22;69411;45.656;11.740;2023-05-17T12:57:52;21.30;53.00
64817;DHT22;69411;45.656;11.740;2023-05-17T13:00:19;21.30;52.70
64817;DHT22;69411;45.656;11.740;2023-05-17T13:02:46;21.20;53.20
64817;DHT22;69411;45.656;11.740;2023-05-17T13:05:16;21.20;53.10
64817;DHT22;69411;45.656;11.740;2023-05-17T13:07:44;21.20;53.40
64817;DHT22;69411;45.656;11.740;2023-05-17T13:10:21;21.20;54.00
64817;DHT22;69411;45.656;11.740;2023-05-17T13:12:55;21.20;54.00
64817;DHT22;69411;45.656;11.740;2023-05-17T13:15:28;21.20;54.30
64817;DHT22;69411;45.656;11.740;2023-05-17T13:17:55;21.20;54.70
64817;DHT22;69411;45.656;11.740;2023-05-17T13:20:21;21.30;54.60
64817;DHT22;69411;45.656;11.740;2023-05-17T13:22:48;21.30;54.50
64817;DHT22;69411;45.656;11.740;2023-05-17T13:25:14;21.30;54.60
64817;DHT22;69411;45.656;11.740;2023-05-17T13:27:40;21.40;54.70
64817;DHT22;69411;45.656;11.740;2023-05-17T13:30:16;21.40;54.60
64817;DHT22;69411;45.656;11.740;2023-05-17T13:32:42;21.40;54.00
64817;DHT22;69411;45.656;11.740;2023-05-17T13:35:09;21.40;54.00
64817;DHT22;69411;45.656;11.740;2023-05-17T13:37:35;21.40;54.10
64817;DHT22;69411;45.656;11.740;2023-05-17T13:40:01;21.50;54.20
64817;DHT22;69411;45.656;11.740;2023-05-17T13:42:27;21.50;53.70
64817;DHT22;69411;45.656;11.740;2023-05-17T13:44:53;21.50;53.70
64817;DHT22;69411;45.656;11.740;2023-05-17T13:47:19;21.60;54.00
64817;DHT22;69411;45.656;11.740;2023-05-17T13:49:45;21.60;53.50
64817;DHT22;69411;45.656;11.740;2023-05-17T13:52:11;21.60;53.40
64817;DHT22;69411;45.656;11.740;2023-05-17T13:54:38;21.60;53.50
64817;DHT22;69411;45.656;11.740;2023-05-17T13:57:06;21.70;53.70
64817;DHT22;69411;45.656;11.740;2023-05-17T13:59:32;21.70;53.30
64817;DHT22;69411;45.656;11.740;2023-05-17T14:01:58;21.70;53.60
64817;DHT22;69411;45.656;11.740;2023-05-17T14:04:24;21.70;53.60
64817;DHT22;69411;45.656;11.740;2023-05-17T14:06:50;21.80;53.30
64817;DHT22;69411;45.656;11.740;2023-05-17T14:09:16;21.70;53.10
64817;DHT22;69411;45.656;11.740;2023-05-17T14:11:42;21.60;51.10
64817;DHT22;69411;45.656;11.740;2023-05-17T14:14:07;21.50;50.30
64817;DHT22;69411;45.656;11.740;2023-05-17T14:16:33;21.40;49.40
64817;DHT22;69411;45.656;11.740;2023-05-17T14:18:59;21.40;49.30
64817;DHT22;69411;45.656;11.740;2023-05-17T14:21:25;21.20;49.60
64817;DHT22;69411;45.656;11.740;2023-05-17T14:23:51;21.10;48.90
64817;DHT22;69411;45.656;11.740;2023-05-17T14:26:17;21.00;49.50
64817;DHT22;69411;45.656;11.740;2023-05-17T14:28:43;20.90;49.70
64817;DHT22;69411;45.656;11.740;2023-05-17T14:31:09;20.90;50.10
64817;DHT22;69411;45.656;11.740;2023-05-17T14:33:35;20.90;50.20
64817;DHT22;69411;45.656;11.740;2023-05-17T14:36:01;20.90;50.00
64817;DHT22;69411;45.656;11.740;2023-05-17T14:38:30;20.90;50.50
64817;DHT22;69411;45.656;11.740;2023-05-17T14:40:57;20.90;50.80
64817;DHT22;69411;45.656;11.740;2023-05-17T14:43:25;20.90;50.80
64817;DHT22;69411;45.656;11.740;2023-05-17T14:45:51;20.90;51.00
64817;DHT22;69411;45.656;11.740;2023-05-17T14:48:16;20.90;50.90
64817;DHT22;69411;45.656;11.740;2023-05-17T14:50:42;21.00;50.90
64817;DHT22;69411;45.656;11.740;2023-05-17T14:53:08;21.00;50.90
64817;DHT22;69411;45.656;11.740;2023-05-17T14:55:34;21.00;50.00
64817;DHT22;69411;45.656;11.740;2023-05-17T14:58:00;20.90;49.20
64817;DHT22;69411;45.656;11.740;2023-05-17T15:00:27;20.90;49.20
64817;DHT22;69411;45.656;11.740;2023-05-17T15:02:53;20.90;49.90
64817;DHT22;69411;45.656;11.740;2023-05-17T15:05:18;20.90;50.40
64817;DHT22;69411;45.656;11.740;2023-05-17T15:07:45;20.90;50.60
64817;DHT22;69411;45.656;11.740;2023-05-17T15:10:12;20.90;50.50
64817;DHT22;69411;45.656;11.740;2023-05-17T15:12:37;20.90;49.80
64817;DHT22;69411;45.656;11.740;2023-05-17T15:15:04;20.90;49.50
64817;DHT22;69411;45.656;11.740;2023-05-17T15:17:30;20.80;49.80
64817;DHT22;69411;45.656;11.740;2023-05-17T15:19:56;20.70;49.10
64817;DHT22;69411;45.656;11.740;2023-05-17T15:22:23;20.60;48.80
64817;DHT22;69411;45.656;11.740;2023-05-17T15:24:49;20.60;49.60
64817;DHT22;69411;45.656;11.740;2023-05-17T15:27:15;20.50;50.00
64817;DHT22;69411;45.656;11.740;2023-05-17T15:29:43;20.50;50.20
64817;DHT22;69411;45.656;11.740;2023-05-17T15:32:09;20.50;50.30
64817;DHT22;69411;45.656;11.740;2023-05-17T15:34:35;20.50;50.70
64817;DHT22;69411;45.656;11.740;2023-05-17T15:37:01;20.50;51.00
64817;DHT22;69411;45.656;11.740;2023-05-17T15:39:27;20.50;51.20
64817;DHT22;69411;45.656;11.740;2023-05-17T15:41:52;20.50;51.30
64817;DHT22;69411;45.656;11.740;2023-05-17T15:44:18;20.50;51.60
64817;DHT22;69411;45.656;11.740;2023-05-17T15:46:44;20.40;51.70
64817;DHT22;69411;45.656;11.740;2023-05-17T15:49:10;20.40;51.90